sensor_id;sensor_type;location;lat;lon;timestamp;P1;durP1;ratioP1;P2;durP2;ratioP2
59974;SDS011;62136;-35.664;-63.766;2023-07-31T00:00:40;6.15;;;3.70;;
59974;SDS011;62136;-35.664;-63.766;2023-07-31T00:03:06;4.65;;;3.15;;
59974;SDS011;62136;-35.664;-63.766;2023-07-31T00:05:33;4.13;;;3.20;;
59974;SDS011;62136;-35.664;-63.766;2023-07-31T00:08:00;6.93;;;4.00;;
59974;SDS011;62136;-35.664;-63.766;2023-07-31T00:10:27;5.72;;;3.70;;
59974;SDS011;62136;-35.664;-63.766;2023-07-31T00:12:54;8.73;;;3.67;;
59974;SDS011;62136;-35.664;-63.766;2023-07-31T00:15:21;6.65;;;4.05;;
59974;SDS011;62136;-35.664;-63.766;2023-07-31T00:17:48;5.63;;;3.72;;
59974;SDS011;62136;-35.664;-63.766;2023-07-31T00:20:15;6.82;;;4.03;;
59974;SDS011;62136;-35.664;-63.766;2023-07-31T00:22:42;5.75;;;3.50;;
59974;SDS011;62136;-35.664;-63.766;2023-07-31T00:25:09;7.43;;;4.55;;
59974;SDS011;62136;-35.664;-63.766;2023-07-31T00:27:36;7.28;;;3.95;;
59974;SDS011;62136;-35.664;-63.766;2023-07-31T00:30:03;6.50;;;4.00;;
59974;SDS011;62136;-35.664;-63.766;2023-07-31T00:32:30;7.20;;;4.22;;
59974;SDS011;62136;-35.664;-63.766;2023-07-31T00:34:57;5.72;;;4.00;;
59974;SDS011;62136;-35.664;-63.766;2023-07-31T00:37:24;7.40;;;3.65;;
59974;SDS011;62136;-35.664;-63.766;2023-07-31T00:39:51;5.75;;;3.53;;
59974;SDS011;62136;-35.664;-63.766;2023-07-31T00:42:18;6.95;;;4.35;;
59974;SDS011;62136;-35.664;-63.766;2023-07-31T00:44:45;6.50;;;3.80;;
59974;SDS011;62136;-35.664;-63.766;2023-07-31T00:47:12;6.57;;;3.60;;
59974;SDS011;62136;-35.664;-63.766;2023-07-31T00:49:39;6.93;;;4.05;;
59974;SDS011;62136;-35.664;-63.766;2023-07-31T00:52:08;11.38;;;5.00;;
59974;SDS011;62136;-35.664;-63.766;2023-07-31T00:54:36;6.60;;;4.82;;
59974;SDS011;62136;-35.664;-63.766;2023-07-31T00:57:03;6.15;;;4.72;;
59974;SDS011;62136;-35.664;-63.766;2023-07-31T00:59:30;8.38;;;4.90;;
59974;SDS011;62136;-35.664;-63.766;2023-07-31T01:01:57;7.15;;;4.45;;
59974;SDS011;62136;-35.664;-63.766;2023-07-31T01:04:24;8.07;;;4.65;;
59974;SDS011;62136;-35.664;-63.766;2023-07-31T01:09:37;10.45;;;5.10;;
59974;SDS011;62136;-35.664;-63.766;2023-07-31T01:12:07;8.23;;;4.70;;
59974;SDS011;62136;-35.664;-63.766;2023-07-31T01:14:38;9.70;;;5.22;;
59974;SDS011;62136;-35.664;-63.766;2023-07-31T01:17:05;8.05;;;4.80;;
59974;SDS011;62136;-35.664;-63.766;2023-07-31T01:19:32;10.40;;;5.00;;
59974;SDS011;62136;-35.664;-63.766;2023-07-31T01:27:30;5.88;;;4.65;;
59974;SDS011;62136;-35.664;-63.766;2023-07-31T01:32:36;6.68;;;4.93;;
59974;SDS011;62136;-35.664;-63.766;2023-07-31T01:35:10;7.13;;;4.78;;
59974;SDS011;62136;-35.664;-63.766;2023-07-31T01:37:37;7.85;;;5.28;;
59974;SDS011;62136;-35.664;-63.766;2023-07-31T01:40:04;6.70;;;5.05;;
59974;SDS011;62136;-35.664;-63.766;2023-07-31T01:42:32;11.27;;;5.40;;
59974;SDS011;62136;-35.664;-63.766;2023-07-31T01:44:59;8.32;;;5.10;;
59974;SDS011;62136;-35.664;-63.766;2023-07-31T01:47:26;7.93;;;4.93;;
59974;SDS011;62136;-35.664;-63.766;2023-07-31T01:49:53;8.30;;;4.90;;
59974;SDS011;62136;-35.664;-63.766;2023-07-31T01:52:19;7.88;;;5.20;;
59974;SDS011;62136;-35.664;-63.766;2023-07-31T01:54:46;8.32;;;5.45;;
59974;SDS011;62136;-35.664;-63.766;2023-07-31T01:57:13;8.25;;;5.32;;
59974;SDS011;62136;-35.664;-63.766;2023-07-31T01:59:40;9.05;;;5.43;;
59974;SDS011;62136;-35.664;-63.766;2023-07-31T02:02:07;7.38;;;5.30;;
59974;SDS011;62136;-35.664;-63.766;2023-07-31T02:04:34;8.25;;;4.93;;
59974;SDS011;62136;-35.664;-63.766;2023-07-31T02:07:01;5.72;;;5.13;;
59974;SDS011;62136;-35.664;-63.766;2023-07-31T02:09:28;9.90;;;5.13;;
59974;SDS011;62136;-35.664;-63.766;2023-07-31T02:11:55;7.93;;;5.53;;
59974;SDS011;62136;-35.664;-63.766;2023-07-31T02:14:22;9.35;;;5.40;;
59974;SDS011;62136;-35.664;-63.766;2023-07-31T02:16:50;10.18;;;5.68;;
59974;SDS011;62136;-35.664;-63.766;2023-07-31T02:19:17;10.88;;;6.40;;
59974;SDS011;62136;-35.664;-63.766;2023-07-31T02:21:44;10.32;;;6.07;;
59974;SDS011;62136;-35.664;-63.766;2023-07-31T02:24:11;8.80;;;5.75;;
59974;SDS011;62136;-35.664;-63.766;2023-07-31T02:26:38;9.88;;;6.18;;
59974;SDS011;62136;-35.664;-63.766;2023-07-31T02:29:05;9.25;;;6.63;;
59974;SDS011;62136;-35.664;-63.766;2023-07-31T02:31:32;9.00;;;5.57;;
59974;SDS011;62136;-35.664;-63.766;2023-07-31T02:33:59;10.55;;;5.68;;
59974;SDS011;62136;-35.664;-63.766;2023-07-31T02:36:26;7.20;;;6.05;;
59974;SDS011;62136;-35.664;-63.766;2023-07-31T02:38:53;8.88;;;6.30;;
59974;SDS011;62136;-35.664;-63.766;2023-07-31T02:41:20;8.93;;;6.00;;
59974;SDS011;62136;-35.664;-63.766;2023-07-31T02:43:47;8.98;;;6.30;;
59974;SDS011;62136;-35.664;-63.766;2023-07-31T02:46:14;7.65;;;5.95;;
59974;SDS011;62136;-35.664;-63.766;2023-07-31T02:48:41;9.52;;;6.15;;
59974;SDS011;62136;-35.664;-63.766;2023-07-31T02:51:08;11.38;;;6.93;;
59974;SDS011;62136;-35.664;-63.766;2023-07-31T02:53:35;9.70;;;6.40;;
59974;SDS011;62136;-35.664;-63.766;2023-07-31T02:56:02;8.70;;;5.75;;
59974;SDS011;62136;-35.664;-63.766;2023-07-31T02:58:29;10.60;;;6.70;;
59974;SDS011;62136;-35.664;-63.766;2023-07-31T03:00:57;11.00;;;6.28;;
59974;SDS011;62136;-35.664;-63.766;2023-07-31T03:03:25;8.90;;;6.32;;
59974;SDS011;62136;-35.664;-63.766;2023-07-31T03:05:52;6.85;;;5.80;;
59974;SDS011;62136;-35.664;-63.766;2023-07-31T03:08:19;9.05;;;6.43;;
59974;SDS011;62136;-35.664;-63.766;2023-07-31T03:10:46;9.82;;;6.63;;
59974;SDS011;62136;-35.664;-63.766;2023-07-31T03:13:13;8.30;;;5.97;;
59974;SDS011;62136;-35.664;-63.766;2023-07-31T03:15:43;8.35;;;6.63;;
59974;SDS011;62136;-35.664;-63.766;2023-07-31T03:18:10;9.95;;;6.72;;
59974;SDS011;62136;-35.664;-63.766;2023-07-31T03:20:37;8.15;;;6.13;;
59974;SDS011;62136;-35.664;-63.766;2023-07-31T03:23:07;8.63;;;6.97;;
59974;SDS011;62136;-35.664;-63.766;2023-07-31T03:25:34;9.63;;;7.25;;
59974;SDS011;62136;-35.664;-63.766;2023-07-31T03:28:01;10.55;;;6.68;;
59974;SDS011;62136;-35.664;-63.766;2023-07-31T03:30:28;8.50;;;6.70;;
59974;SDS011;62136;-35.664;-63.766;2023-07-31T03:32:55;10.25;;;6.70;;
59974;SDS011;62136;-35.664;-63.766;2023-07-31T03:35:22;11.82;;;6.75;;
59974;SDS011;62136;-35.664;-63.766;2023-07-31T03:37:49;11.15;;;6.07;;
59974;SDS011;62136;-35.664;-63.766;2023-07-31T03:40:16;8.77;;;6.65;;
59974;SDS011;62136;-35.664;-63.766;2023-07-31T03:42:43;7.55;;;6.22;;
59974;SDS011;62136;-35.664;-63.766;2023-07-31T03:45:10;10.13;;;6.80;;
59974;SDS011;62136;-35.664;-63.766;2023-07-31T03:47:37;10.63;;;6.40;;
59974;SDS011;62136;-35.664;-63.766;2023-07-31T03:50:04;8.20;;;6.00;;
59974;SDS011;62136;-35.664;-63.766;2023-07-31T03:52:31;8.75;;;5.85;;
59974;SDS011;62136;-35.664;-63.766;2023-07-31T03:54:58;9.13;;;6.43;;
59974;SDS011;62136;-35.664;-63.766;2023-07-31T03:57:25;8.70;;;6.45;;
59974;SDS011;62136;-35.664;-63.766;2023-07-31T03:59:52;9.18;;;5.95;;
59974;SDS011;62136;-35.664;-63.766;2023-07-31T04:02:19;8.48;;;6.03;;
59974;SDS011;62136;-35.664;-63.766;2023-07-31T04:04:46;9.82;;;6.97;;
59974;SDS011;62136;-35.664;-63.766;2023-07-31T04:07:13;7.35;;;6.22;;
59974;SDS011;62136;-35.664;-63.766;2023-07-31T04:09:40;11.15;;;6.03;;
59974;SDS011;62136;-35.664;-63.766;2023-07-31T04:12:07;8.50;;;6.18;;
59974;SDS011;62136;-35.664;-63.766;2023-07-31T04:14:34;8.98;;;6.32;;
59974;SDS011;62136;-35.664;-63.766;2023-07-31T04:17:01;9.98;;;5.68;;
59974;SDS011;62136;-35.664;-63.766;2023-07-31T04:19:28;9.32;;;5.97;;
59974;SDS011;62136;-35.664;-63.766;2023-07-31T04:21:55;8.15;;;6.03;;
59974;SDS011;62136;-35.664;-63.766;2023-07-31T04:24:22;9.40;;;6.53;;
59974;SDS011;62136;-35.664;-63.766;2023-07-31T04:26:52;7.75;;;5.38;;
59974;SDS011;62136;-35.664;-63.766;2023-07-31T04:29:19;7.75;;;5.55;;
59974;SDS011;62136;-35.664;-63.766;2023-07-31T04:31:47;10.02;;;6.38;;
59974;SDS011;62136;-35.664;-63.766;2023-07-31T04:34:14;9.63;;;6.10;;
59974;SDS011;62136;-35.664;-63.766;2023-07-31T04:36:41;8.20;;;6.68;;
59974;SDS011;62136;-35.664;-63.766;2023-07-31T04:39:08;7.82;;;5.40;;
59974;SDS011;62136;-35.664;-63.766;2023-07-31T04:41:35;9.23;;;6.07;;
59974;SDS011;62136;-35.664;-63.766;2023-07-31T04:44:02;8.77;;;5.63;;
59974;SDS011;62136;-35.664;-63.766;2023-07-31T04:46:29;9.55;;;6.03;;
59974;SDS011;62136;-35.664;-63.766;2023-07-31T04:48:56;6.93;;;5.22;;
59974;SDS011;62136;-35.664;-63.766;2023-07-31T04:51:23;6.53;;;5.40;;
59974;SDS011;62136;-35.664;-63.766;2023-07-31T04:53:50;7.07;;;5.00;;
59974;SDS011;62136;-35.664;-63.766;2023-07-31T04:56:17;6.15;;;5.55;;
59974;SDS011;62136;-35.664;-63.766;2023-07-31T04:58:44;7.45;;;5.18;;
59974;SDS011;62136;-35.664;-63.766;2023-07-31T05:01:11;8.95;;;5.80;;
59974;SDS011;62136;-35.664;-63.766;2023-07-31T05:03:38;7.00;;;5.43;;
59974;SDS011;62136;-35.664;-63.766;2023-07-31T05:06:05;8.10;;;5.15;;
59974;SDS011;62136;-35.664;-63.766;2023-07-31T05:08:32;8.15;;;5.32;;
59974;SDS011;62136;-35.664;-63.766;2023-07-31T05:10:59;7.05;;;4.88;;
59974;SDS011;62136;-35.664;-63.766;2023-07-31T05:13:26;7.00;;;5.40;;
59974;SDS011;62136;-35.664;-63.766;2023-07-31T05:15:53;7.82;;;5.15;;
59974;SDS011;62136;-35.664;-63.766;2023-07-31T05:18:19;8.52;;;5.38;;
59974;SDS011;62136;-35.664;-63.766;2023-07-31T05:20:46;5.55;;;4.80;;
59974;SDS011;62136;-35.664;-63.766;2023-07-31T05:23:13;7.60;;;5.43;;
59974;SDS011;62136;-35.664;-63.766;2023-07-31T05:25:40;8.30;;;5.00;;
59974;SDS011;62136;-35.664;-63.766;2023-07-31T05:28:07;6.80;;;4.72;;
59974;SDS011;62136;-35.664;-63.766;2023-07-31T05:30:34;6.30;;;4.60;;
59974;SDS011;62136;-35.664;-63.766;2023-07-31T05:33:01;7.68;;;5.57;;
59974;SDS011;62136;-35.664;-63.766;2023-07-31T05:35:28;6.90;;;4.82;;
59974;SDS011;62136;-35.664;-63.766;2023-07-31T05:37:55;6.45;;;4.85;;
59974;SDS011;62136;-35.664;-63.766;2023-07-31T05:40:22;6.85;;;4.85;;
59974;SDS011;62136;-35.664;-63.766;2023-07-31T05:42:49;7.03;;;4.70;;
59974;SDS011;62136;-35.664;-63.766;2023-07-31T05:45:16;8.32;;;5.03;;
59974;SDS011;62136;-35.664;-63.766;2023-07-31T05:47:43;6.93;;;4.88;;
59974;SDS011;62136;-35.664;-63.766;2023-07-31T05:50:09;9.77;;;5.30;;
59974;SDS011;62136;-35.664;-63.766;2023-07-31T05:52:36;6.15;;;4.57;;
59974;SDS011;62136;-35.664;-63.766;2023-07-31T05:55:03;8.43;;;5.07;;
59974;SDS011;62136;-35.664;-63.766;2023-07-31T05:57:31;8.10;;;4.78;;
59974;SDS011;62136;-35.664;-63.766;2023-07-31T05:59:58;7.32;;;4.63;;
59974;SDS011;62136;-35.664;-63.766;2023-07-31T06:02:25;5.10;;;4.20;;
59974;SDS011;62136;-35.664;-63.766;2023-07-31T06:04:52;4.85;;;4.28;;
59974;SDS011;62136;-35.664;-63.766;2023-07-31T06:07:19;5.97;;;4.10;;
59974;SDS011;62136;-35.664;-63.766;2023-07-31T06:09:46;10.13;;;4.88;;
59974;SDS011;62136;-35.664;-63.766;2023-07-31T06:12:13;4.88;;;3.88;;
59974;SDS011;62136;-35.664;-63.766;2023-07-31T06:14:43;6.55;;;4.00;;
59974;SDS011;62136;-35.664;-63.766;2023-07-31T06:17:10;7.28;;;4.72;;
59974;SDS011;62136;-35.664;-63.766;2023-07-31T06:19:37;6.25;;;4.38;;
59974;SDS011;62136;-35.664;-63.766;2023-07-31T06:22:04;7.35;;;4.55;;
59974;SDS011;62136;-35.664;-63.766;2023-07-31T06:24:31;5.32;;;3.88;;
59974;SDS011;62136;-35.664;-63.766;2023-07-31T06:26:58;5.55;;;4.07;;
59974;SDS011;62136;-35.664;-63.766;2023-07-31T06:29:25;5.85;;;4.78;;
59974;SDS011;62136;-35.664;-63.766;2023-07-31T06:31:52;5.93;;;3.92;;
59974;SDS011;62136;-35.664;-63.766;2023-07-31T06:34:19;7.03;;;3.60;;
59974;SDS011;62136;-35.664;-63.766;2023-07-31T06:36:46;7.10;;;3.80;;
59974;SDS011;62136;-35.664;-63.766;2023-07-31T06:39:12;5.50;;;3.60;;
59974;SDS011;62136;-35.664;-63.766;2023-07-31T06:41:39;7.47;;;3.30;;
59974;SDS011;62136;-35.664;-63.766;2023-07-31T06:44:08;6.53;;;4.18;;
59974;SDS011;62136;-35.664;-63.766;2023-07-31T06:46:35;5.70;;;4.20;;
59974;SDS011;62136;-35.664;-63.766;2023-07-31T06:49:02;4.85;;;3.60;;
59974;SDS011;62136;-35.664;-63.766;2023-07-31T06:53:58;4.72;;;3.65;;
59974;SDS011;62136;-35.664;-63.766;2023-07-31T06:56:26;7.20;;;3.90;;
59974;SDS011;62136;-35.664;-63.766;2023-07-31T06:58:53;4.82;;;3.60;;
59974;SDS011;62136;-35.664;-63.766;2023-07-31T07:01:20;4.70;;;3.80;;
59974;SDS011;62136;-35.664;-63.766;2023-07-31T07:03:48;4.60;;;3.80;;
59974;SDS011;62136;-35.664;-63.766;2023-07-31T07:06:16;4.60;;;3.55;;
59974;SDS011;62136;-35.664;-63.766;2023-07-31T07:08:43;7.40;;;4.10;;
59974;SDS011;62136;-35.664;-63.766;2023-07-31T07:11:10;5.57;;;3.50;;
59974;SDS011;62136;-35.664;-63.766;2023-07-31T07:13:37;4.50;;;3.58;;
59974;SDS011;62136;-35.664;-63.766;2023-07-31T07:16:04;4.50;;;3.63;;
59974;SDS011;62136;-35.664;-63.766;2023-07-31T07:18:31;5.80;;;3.72;;
59974;SDS011;62136;-35.664;-63.766;2023-07-31T07:20:58;4.80;;;3.38;;
59974;SDS011;62136;-35.664;-63.766;2023-07-31T07:23:27;6.75;;;3.47;;
59974;SDS011;62136;-35.664;-63.766;2023-07-31T07:25:54;3.25;;;2.88;;
59974;SDS011;62136;-35.664;-63.766;2023-07-31T07:28:21;5.35;;;3.40;;
59974;SDS011;62136;-35.664;-63.766;2023-07-31T07:30:52;9.77;;;3.80;;
59974;SDS011;62136;-35.664;-63.766;2023-07-31T07:33:19;6.28;;;4.07;;
59974;SDS011;62136;-35.664;-63.766;2023-07-31T07:35:46;4.57;;;3.55;;
59974;SDS011;62136;-35.664;-63.766;2023-07-31T07:38:16;4.22;;;3.67;;
59974;SDS011;62136;-35.664;-63.766;2023-07-31T07:40:44;5.50;;;3.35;;
59974;SDS011;62136;-35.664;-63.766;2023-07-31T07:43:15;4.10;;;3.60;;
59974;SDS011;62136;-35.664;-63.766;2023-07-31T07:45:42;6.72;;;3.40;;
59974;SDS011;62136;-35.664;-63.766;2023-07-31T07:48:09;5.45;;;3.25;;
59974;SDS011;62136;-35.664;-63.766;2023-07-31T07:50:38;3.95;;;3.03;;
59974;SDS011;62136;-35.664;-63.766;2023-07-31T07:53:05;5.28;;;3.22;;
59974;SDS011;62136;-35.664;-63.766;2023-07-31T07:55:32;6.35;;;3.08;;
59974;SDS011;62136;-35.664;-63.766;2023-07-31T07:57:59;4.90;;;3.20;;
59974;SDS011;62136;-35.664;-63.766;2023-07-31T08:00:26;4.60;;;3.00;;
59974;SDS011;62136;-35.664;-63.766;2023-07-31T08:02:52;5.55;;;3.03;;
59974;SDS011;62136;-35.664;-63.766;2023-07-31T08:05:19;5.28;;;3.05;;
59974;SDS011;62136;-35.664;-63.766;2023-07-31T08:07:55;4.93;;;3.30;;
59974;SDS011;62136;-35.664;-63.766;2023-07-31T08:10:22;6.53;;;4.00;;
59974;SDS011;62136;-35.664;-63.766;2023-07-31T08:12:49;5.28;;;3.47;;
59974;SDS011;62136;-35.664;-63.766;2023-07-31T08:15:16;5.88;;;3.38;;
59974;SDS011;62136;-35.664;-63.766;2023-07-31T08:17:43;3.55;;;3.00;;
59974;SDS011;62136;-35.664;-63.766;2023-07-31T08:20:10;4.32;;;3.08;;
59974;SDS011;62136;-35.664;-63.766;2023-07-31T08:22:37;5.63;;;3.20;;
59974;SDS011;62136;-35.664;-63.766;2023-07-31T08:25:05;7.47;;;3.70;;
59974;SDS011;62136;-35.664;-63.766;2023-07-31T08:27:33;4.88;;;2.72;;
59974;SDS011;62136;-35.664;-63.766;2023-07-31T08:30:00;6.35;;;2.80;;
59974;SDS011;62136;-35.664;-63.766;2023-07-31T08:32:27;3.13;;;2.83;;
59974;SDS011;62136;-35.664;-63.766;2023-07-31T08:34:54;5.75;;;3.05;;
59974;SDS011;62136;-35.664;-63.766;2023-07-31T08:37:21;3.75;;;2.40;;
59974;SDS011;62136;-35.664;-63.766;2023-07-31T08:39:47;6.45;;;3.00;;
59974;SDS011;62136;-35.664;-63.766;2023-07-31T08:42:14;5.03;;;2.90;;
59974;SDS011;62136;-35.664;-63.766;2023-07-31T08:44:41;4.55;;;2.58;;
59974;SDS011;62136;-35.664;-63.766;2023-07-31T08:47:10;3.83;;;2.65;;
59974;SDS011;62136;-35.664;-63.766;2023-07-31T08:49:38;5.85;;;3.08;;
59974;SDS011;62136;-35.664;-63.766;2023-07-31T08:52:06;4.20;;;2.60;;
59974;SDS011;62136;-35.664;-63.766;2023-07-31T08:54:33;6.03;;;3.30;;
59974;SDS011;62136;-35.664;-63.766;2023-07-31T08:57:00;7.40;;;3.25;;
59974;SDS011;62136;-35.664;-63.766;2023-07-31T08:59:28;3.65;;;2.90;;
59974;SDS011;62136;-35.664;-63.766;2023-07-31T09:01:57;5.82;;;3.30;;
59974;SDS011;62136;-35.664;-63.766;2023-07-31T09:04:32;3.50;;;2.80;;
59974;SDS011;62136;-35.664;-63.766;2023-07-31T09:07:00;5.25;;;3.03;;
59974;SDS011;62136;-35.664;-63.766;2023-07-31T09:09:32;4.72;;;2.78;;
59974;SDS011;62136;-35.664;-63.766;2023-07-31T09:11:59;4.60;;;2.45;;
59974;SDS011;62136;-35.664;-63.766;2023-07-31T09:14:27;3.30;;;2.67;;
59974;SDS011;62136;-35.664;-63.766;2023-07-31T09:16:55;5.57;;;2.80;;
59974;SDS011;62136;-35.664;-63.766;2023-07-31T09:19:32;3.22;;;2.70;;
59974;SDS011;62136;-35.664;-63.766;2023-07-31T09:22:02;6.15;;;2.85;;
59974;SDS011;62136;-35.664;-63.766;2023-07-31T09:24:31;5.00;;;2.95;;
59974;SDS011;62136;-35.664;-63.766;2023-07-31T09:26:59;4.47;;;2.50;;
59974;SDS011;62136;-35.664;-63.766;2023-07-31T09:29:28;5.85;;;2.88;;
59974;SDS011;62136;-35.664;-63.766;2023-07-31T09:31:55;4.68;;;2.75;;
59974;SDS011;62136;-35.664;-63.766;2023-07-31T09:34:44;3.90;;;2.83;;
59974;SDS011;62136;-35.664;-63.766;2023-07-31T09:37:10;2.95;;;2.60;;
59974;SDS011;62136;-35.664;-63.766;2023-07-31T09:39:47;5.43;;;2.47;;
59974;SDS011;62136;-35.664;-63.766;2023-07-31T09:42:26;4.05;;;2.40;;
59974;SDS011;62136;-35.664;-63.766;2023-07-31T09:44:54;3.10;;;2.78;;
59974;SDS011;62136;-35.664;-63.766;2023-07-31T09:47:36;7.28;;;2.95;;
59974;SDS011;62136;-35.664;-63.766;2023-07-31T09:50:07;4.25;;;2.47;;
59974;SDS011;62136;-35.664;-63.766;2023-07-31T09:52:34;4.28;;;2.63;;
59974;SDS011;62136;-35.664;-63.766;2023-07-31T09:55:03;3.65;;;2.80;;
59974;SDS011;62136;-35.664;-63.766;2023-07-31T09:57:30;4.80;;;2.30;;
59974;SDS011;62136;-35.664;-63.766;2023-07-31T09:59:58;6.72;;;2.92;;
59974;SDS011;62136;-35.664;-63.766;2023-07-31T10:02:25;3.40;;;2.80;;
59974;SDS011;62136;-35.664;-63.766;2023-07-31T10:04:54;4.32;;;2.70;;
59974;SDS011;62136;-35.664;-63.766;2023-07-31T10:07:26;5.18;;;2.83;;
59974;SDS011;62136;-35.664;-63.766;2023-07-31T10:09:57;4.90;;;2.70;;
59974;SDS011;62136;-35.664;-63.766;2023-07-31T10:12:26;4.55;;;2.72;;
59974;SDS011;62136;-35.664;-63.766;2023-07-31T10:14:55;3.33;;;3.03;;
59974;SDS011;62136;-35.664;-63.766;2023-07-31T10:17:22;3.53;;;2.30;;
59974;SDS011;62136;-35.664;-63.766;2023-07-31T10:19:50;2.97;;;2.55;;
59974;SDS011;62136;-35.664;-63.766;2023-07-31T10:22:21;6.47;;;2.70;;
59974;SDS011;62136;-35.664;-63.766;2023-07-31T10:24:50;4.47;;;2.60;;
59974;SDS011;62136;-35.664;-63.766;2023-07-31T10:27:18;4.75;;;2.60;;
59974;SDS011;62136;-35.664;-63.766;2023-07-31T10:29:45;5.60;;;2.63;;
59974;SDS011;62136;-35.664;-63.766;2023-07-31T10:32:13;5.32;;;2.70;;
59974;SDS011;62136;-35.664;-63.766;2023-07-31T10:34:42;4.78;;;3.10;;
59974;SDS011;62136;-35.664;-63.766;2023-07-31T10:40:16;4.53;;;3.00;;
59974;SDS011;62136;-35.664;-63.766;2023-07-31T10:42:50;6.35;;;2.90;;
59974;SDS011;62136;-35.664;-63.766;2023-07-31T10:45:25;5.35;;;2.65;;
59974;SDS011;62136;-35.664;-63.766;2023-07-31T10:48:06;5.32;;;2.90;;
59974;SDS011;62136;-35.664;-63.766;2023-07-31T10:50:40;6.55;;;2.55;;
59974;SDS011;62136;-35.664;-63.766;2023-07-31T10:53:27;5.05;;;2.85;;
59974;SDS011;62136;-35.664;-63.766;2023-07-31T10:56:00;4.72;;;2.58;;
59974;SDS011;62136;-35.664;-63.766;2023-07-31T10:58:31;3.25;;;2.80;;
59974;SDS011;62136;-35.664;-63.766;2023-07-31T11:01:01;4.53;;;2.65;;
59974;SDS011;62136;-35.664;-63.766;2023-07-31T11:03:49;4.57;;;2.85;;
59974;SDS011;62136;-35.664;-63.766;2023-07-31T11:06:20;5.10;;;2.78;;
59974;SDS011;62136;-35.664;-63.766;2023-07-31T11:08:51;3.25;;;2.85;;
59974;SDS011;62136;-35.664;-63.766;2023-07-31T11:11:19;6.75;;;3.38;;
59974;SDS011;62136;-35.664;-63.766;2023-07-31T11:13:46;4.57;;;2.60;;
59974;SDS011;62136;-35.664;-63.766;2023-07-31T11:16:22;6.93;;;3.55;;
59974;SDS011;62136;-35.664;-63.766;2023-07-31T11:18:50;9.75;;;4.70;;
59974;SDS011;62136;-35.664;-63.766;2023-07-31T11:21:37;12.80;;;4.25;;
59974;SDS011;62136;-35.664;-63.766;2023-07-31T11:24:04;8.43;;;3.95;;
59974;SDS011;62136;-35.664;-63.766;2023-07-31T11:26:31;5.32;;;3.60;;
59974;SDS011;62136;-35.664;-63.766;2023-07-31T11:28:58;6.38;;;3.70;;
59974;SDS011;62136;-35.664;-63.766;2023-07-31T11:31:25;6.80;;;3.95;;
59974;SDS011;62136;-35.664;-63.766;2023-07-31T11:34:13;9.27;;;3.90;;
59974;SDS011;62136;-35.664;-63.766;2023-07-31T11:36:40;8.40;;;3.90;;
59974;SDS011;62136;-35.664;-63.766;2023-07-31T11:39:18;8.52;;;3.80;;
59974;SDS011;62136;-35.664;-63.766;2023-07-31T11:41:45;9.20;;;4.00;;
59974;SDS011;62136;-35.664;-63.766;2023-07-31T11:44:11;5.85;;;3.63;;
59974;SDS011;62136;-35.664;-63.766;2023-07-31T11:46:38;6.28;;;3.92;;
59974;SDS011;62136;-35.664;-63.766;2023-07-31T11:49:05;7.75;;;3.70;;
59974;SDS011;62136;-35.664;-63.766;2023-07-31T11:51:32;7.00;;;4.18;;
59974;SDS011;62136;-35.664;-63.766;2023-07-31T11:54:00;8.90;;;4.40;;
59974;SDS011;62136;-35.664;-63.766;2023-07-31T11:56:28;7.32;;;4.28;;
59974;SDS011;62136;-35.664;-63.766;2023-07-31T11:58:59;6.25;;;4.40;;
59974;SDS011;62136;-35.664;-63.766;2023-07-31T12:01:28;8.27;;;4.30;;
59974;SDS011;62136;-35.664;-63.766;2023-07-31T12:03:56;4.95;;;4.45;;
59974;SDS011;62136;-35.664;-63.766;2023-07-31T12:06:36;6.03;;;4.22;;
59974;SDS011;62136;-35.664;-63.766;2023-07-31T12:09:04;7.53;;;4.15;;
59974;SDS011;62136;-35.664;-63.766;2023-07-31T12:11:42;8.25;;;4.32;;
59974;SDS011;62136;-35.664;-63.766;2023-07-31T12:14:08;8.55;;;4.80;;
59974;SDS011;62136;-35.664;-63.766;2023-07-31T12:16:45;8.38;;;4.90;;
59974;SDS011;62136;-35.664;-63.766;2023-07-31T12:19:12;10.90;;;5.60;;
59974;SDS011;62136;-35.664;-63.766;2023-07-31T12:21:39;17.02;;;9.93;;
59974;SDS011;62136;-35.664;-63.766;2023-07-31T12:24:06;14.50;;;6.28;;
59974;SDS011;62136;-35.664;-63.766;2023-07-31T12:26:36;10.93;;;5.82;;
59974;SDS011;62136;-35.664;-63.766;2023-07-31T12:29:05;11.00;;;5.30;;
59974;SDS011;62136;-35.664;-63.766;2023-07-31T12:31:34;10.57;;;5.38;;
59974;SDS011;62136;-35.664;-63.766;2023-07-31T12:34:02;8.10;;;4.47;;
59974;SDS011;62136;-35.664;-63.766;2023-07-31T12:36:30;7.55;;;5.57;;
59974;SDS011;62136;-35.664;-63.766;2023-07-31T12:39:01;8.25;;;4.85;;
59974;SDS011;62136;-35.664;-63.766;2023-07-31T12:41:29;10.38;;;5.03;;
59974;SDS011;62136;-35.664;-63.766;2023-07-31T12:43:56;9.05;;;4.95;;
59974;SDS011;62136;-35.664;-63.766;2023-07-31T12:46:24;10.15;;;5.75;;
59974;SDS011;62136;-35.664;-63.766;2023-07-31T12:48:51;8.57;;;4.93;;
59974;SDS011;62136;-35.664;-63.766;2023-07-31T12:51:18;8.80;;;5.15;;
59974;SDS011;62136;-35.664;-63.766;2023-07-31T12:53:46;8.95;;;5.03;;
59974;SDS011;62136;-35.664;-63.766;2023-07-31T12:56:13;8.80;;;5.95;;
59974;SDS011;62136;-35.664;-63.766;2023-07-31T12:58:40;11.63;;;5.45;;
59974;SDS011;62136;-35.664;-63.766;2023-07-31T13:01:07;7.35;;;4.85;;
59974;SDS011;62136;-35.664;-63.766;2023-07-31T13:03:34;7.65;;;4.63;;
59974;SDS011;62136;-35.664;-63.766;2023-07-31T13:06:01;7.82;;;5.05;;
59974;SDS011;62136;-35.664;-63.766;2023-07-31T13:08:31;6.75;;;4.50;;
59974;SDS011;62136;-35.664;-63.766;2023-07-31T13:10:58;8.20;;;4.88;;
59974;SDS011;62136;-35.664;-63.766;2023-07-31T13:13:25;9.65;;;5.30;;
59974;SDS011;62136;-35.664;-63.766;2023-07-31T13:15:52;7.63;;;4.00;;
59974;SDS011;62136;-35.664;-63.766;2023-07-31T13:18:19;8.15;;;4.80;;
59974;SDS011;62136;-35.664;-63.766;2023-07-31T13:20:46;7.15;;;4.53;;
59974;SDS011;62136;-35.664;-63.766;2023-07-31T13:23:14;9.35;;;4.68;;
59974;SDS011;62136;-35.664;-63.766;2023-07-31T13:25:41;6.35;;;4.65;;
59974;SDS011;62136;-35.664;-63.766;2023-07-31T13:28:11;13.57;;;6.82;;
59974;SDS011;62136;-35.664;-63.766;2023-07-31T13:30:38;13.75;;;5.60;;
59974;SDS011;62136;-35.664;-63.766;2023-07-31T13:33:05;11.05;;;6.00;;
59974;SDS011;62136;-35.664;-63.766;2023-07-31T13:35:32;7.65;;;5.68;;
59974;SDS011;62136;-35.664;-63.766;2023-07-31T13:38:00;9.82;;;5.10;;
59974;SDS011;62136;-35.664;-63.766;2023-07-31T13:40:27;8.52;;;4.95;;
59974;SDS011;62136;-35.664;-63.766;2023-07-31T13:42:54;6.63;;;4.68;;
59974;SDS011;62136;-35.664;-63.766;2023-07-31T13:45:22;8.38;;;5.03;;
59974;SDS011;62136;-35.664;-63.766;2023-07-31T13:47:50;7.13;;;4.32;;
59974;SDS011;62136;-35.664;-63.766;2023-07-31T13:50:17;7.65;;;4.63;;
59974;SDS011;62136;-35.664;-63.766;2023-07-31T13:52:46;7.13;;;4.13;;
59974;SDS011;62136;-35.664;-63.766;2023-07-31T13:55:13;5.88;;;4.22;;
59974;SDS011;62136;-35.664;-63.766;2023-07-31T13:57:42;7.38;;;4.28;;
59974;SDS011;62136;-35.664;-63.766;2023-07-31T14:00:09;11.07;;;5.40;;
59974;SDS011;62136;-35.664;-63.766;2023-07-31T14:02:37;8.15;;;4.72;;
59974;SDS011;62136;-35.664;-63.766;2023-07-31T14:05:05;7.82;;;5.10;;
59974;SDS011;62136;-35.664;-63.766;2023-07-31T14:07:34;11.38;;;5.63;;
59974;SDS011;62136;-35.664;-63.766;2023-07-31T14:10:01;8.35;;;5.40;;
59974;SDS011;62136;-35.664;-63.766;2023-07-31T14:14:59;7.68;;;5.07;;
59974;SDS011;62136;-35.664;-63.766;2023-07-31T14:17:26;8.43;;;4.63;;
59974;SDS011;62136;-35.664;-63.766;2023-07-31T14:19:53;8.52;;;5.30;;
59974;SDS011;62136;-35.664;-63.766;2023-07-31T14:22:28;7.70;;;4.78;;
59974;SDS011;62136;-35.664;-63.766;2023-07-31T14:24:55;9.27;;;4.50;;
59974;SDS011;62136;-35.664;-63.766;2023-07-31T14:27:22;6.72;;;4.30;;
59974;SDS011;62136;-35.664;-63.766;2023-07-31T14:29:49;7.85;;;4.63;;
59974;SDS011;62136;-35.664;-63.766;2023-07-31T14:32:16;8.38;;;5.30;;